Time;durP1;ratioP1;P1;durP2;ratioP2;P2;SDS_P1;SDS_P2;PMS_P1;PMS_P2;Temp;Humidity;BMP_temperature;BMP_pressure;BME280_temperature;BME280_humidity;BME280_pressure;Samples;Min_cycle;Max_cycle;Signal;HPM_P1;HPM_P2
2022/04/28 00:01:47;;;;;;;12.75;5.72;;;;;;;12.60;86.07;100490.72;5013068;28;20058;-72
2022/04/28 00:04:12;;;;;;;18.73;7.70;;;;;;;12.73;86.49;100518.72;5013108;28;20037;-75
2022/04/28 00:06:38;;;;;;;14.63;7.05;;;;;;;12.82;86.42;100510.31;5012933;28;20038;-75
2022/04/28 00:09:04;;;;;;;12.32;6.78;;;;;;;12.73;86.20;100518.72;5012744;28;20169;-74
2022/04/28 00:11:30;;;;;;;15.68;5.90;;;;;;;12.57;86.32;100503.56;5012845;28;20121;-76
2022/04/28 00:13:55;;;;;;;14.57;5.60;;;;;;;12.50;86.53;100506.78;5012170;28;20120;-76
2022/04/28 00:16:21;;;;;;;14.10;5.18;;;;;;;12.48;87.02;100518.84;5009265;28;20544;-75
2022/04/28 00:18:46;;;;;;;18.08;8.50;;;;;;;12.43;87.20;100523.88;5000839;28;20037;-78
2022/04/28 00:21:11;;;;;;;22.48;9.25;;;;;;;12.32;87.30;100510.59;5012289;28;20506;-76
2022/04/28 00:23:37;;;;;;;26.35;9.43;;;;;;;12.25;87.82;100498.28;5012378;28;20469;-75
2022/04/28 00:26:02;;;;;;;24.20;9.70;;;;;;;12.13;88.49;100494.50;5012119;28;20105;-76
2022/04/28 00:28:28;;;;;;;35.33;13.68;;;;;;;12.32;88.35;100510.59;5011732;28;20065;-75
2022/04/28 00:30:53;;;;;;;27.60;11.48;;;;;;;12.21;87.45;100497.34;5012000;28;20150;-77
2022/04/28 00:33:20;;;;;;;22.40;8.45;;;;;;;12.21;87.77;100519.75;5012473;28;20037;-76
2022/04/28 00:35:45;;;;;;;28.05;10.88;;;;;;;12.04;87.47;100489.03;5026591;28;20037;-74
2022/04/28 00:38:11;;;;;;;46.88;17.17;;;;;;;11.93;87.88;100495.56;5011921;28;20080;-76
2022/04/28 00:40:37;;;;;;;42.92;15.50;;;;;;;11.60;88.95;100457.41;5012212;28;20117;-77
2022/04/28 00:43:20;;;;;;;30.38;11.77;;;;;;;11.84;89.32;100500.41;5011652;28;20113;-76
2022/04/28 00:45:47;;;;;;;35.13;13.23;;;;;;;11.89;89.04;100493.72;5012022;28;20030;-76
2022/04/28 00:51:00;;;;;;;25.80;10.25;;;;;;;12.27;88.51;100507.88;5011592;28;20161;-76
2022/04/28 00:53:29;;;;;;;24.33;9.75;;;;;;;12.41;88.15;100510.00;5011464;28;20100;-74
2022/04/28 00:55:55;;;;;;;16.17;6.72;;;;;;;12.32;87.95;100508.00;5011725;28;20477;-77
2022/04/28 00:58:20;;;;;;;13.23;6.97;;;;;;;12.10;88.14;100491.81;5011708;28;20117;-77
2022/04/28 01:00:46;;;;;;;11.07;6.20;;;;;;;12.00;88.28;100481.13;5011632;28;20113;-78
2022/04/28 01:03:12;;;;;;;10.60;5.60;;;;;;;12.03;88.60;100499.34;5011393;28;20049;-77
2022/04/28 01:05:38;;;;;;;11.25;6.13;;;;;;;11.92;89.54;100511.91;5011548;28;20084;-76
2022/04/28 01:08:04;;;;;;;8.75;5.38;;;;;;;11.84;89.78;100519.44;5011062;28;20409;-76
2022/04/28 01:10:29;;;;;;;14.48;6.10;;;;;;;11.86;89.77;100511.72;4976548;28;20049;-79
2022/04/28 01:12:56;;;;;;;14.48;7.38;;;;;;;11.92;88.93;100507.59;5011940;28;20034;-77
2022/04/28 01:15:21;;;;;;;19.92;8.73;;;;;;;12.00;88.45;100519.94;5011500;28;20030;-76
2022/04/28 01:17:47;;;;;;;15.27;7.75;;;;;;;11.98;88.72;100514.72;5011303;28;20095;-76
2022/04/28 01:20:12;;;;;;;16.30;6.80;;;;;;;12.06;88.45;100514.97;5011178;28;20022;-76
2022/04/28 01:22:38;;;;;;;12.60;6.05;;;;;;;12.23;87.56;100511.19;5011209;28;20050;-75
2022/04/28 01:25:08;;;;;;;10.45;5.20;;;;;;;12.15;87.97;100515.28;5010931;28;20064;-76
2022/04/28 01:27:35;;;;;;;9.98;4.75;;;;;;;12.06;88.86;100521.03;4976251;28;20037;-75
2022/04/28 01:30:00;;;;;;;10.00;5.45;;;;;;;11.91;89.52;100504.97;4992503;28;20061;-73
2022/04/28 01:32:26;;;;;;;11.85;5.95;;;;;;;11.81;90.23;100496.94;5011381;28;20030;-73
2022/04/28 01:34:52;;;;;;;11.20;6.28;;;;;;;11.93;90.35;100517.13;5011626;28;20030;-74
2022/04/28 01:37:18;;;;;;;11.40;6.65;;;;;;;12.09;89.98;100515.94;5010857;28;20062;-73
2022/04/28 01:39:43;;;;;;;20.60;8.13;;;;;;;12.14;89.10;100513.50;5010079;28;20536;-75
2022/04/28 01:42:09;;;;;;;23.20;9.25;;;;;;;12.21;88.71;100512.88;5011263;28;20044;-75
2022/04/28 01:44:35;;;;;;;30.08;10.80;;;;;;;12.13;88.89;100493.63;5010790;28;20053;-75
2022/04/28 01:47:01;;;;;;;26.20;11.40;;;;;;;12.08;88.84;100488.31;4976259;28;20418;-79
2022/04/28 01:49:26;;;;;;;30.38;11.85;;;;;;;11.98;89.92;100499.19;4993082;28;20038;-76
2022/04/28 01:57:20;;;;;;;17.38;8.18;;;;;;;11.63;92.44;100502.38;5010761;28;20445;-74
2022/04/28 01:59:46;;;;;;;15.82;7.70;;;;;;;11.23;92.82;100446.75;5010736;28;20030;-75
2022/04/28 02:02:12;;;;;;;12.93;6.30;;;;;;;11.39;93.42;100497.25;5010342;28;20029;-76
2022/04/28 02:04:38;;;;;;;11.07;6.47;;;;;;;11.35;93.65;100494.50;5010487;28;20452;-76
2022/04/28 02:07:04;;;;;;;17.45;7.65;;;;;;;11.26;93.59;100480.44;5010457;28;20432;-75
2022/04/28 02:09:29;;;;;;;23.30;10.68;;;;;;;11.33;92.76;100491.88;5010424;28;20045;-73
2022/04/28 02:11:55;;;;;;;32.58;13.50;;;;;;;11.17;92.79;100470.66;5010352;28;20477;-75
2022/04/28 02:14:21;;;;;;;29.73;13.90;;;;;;;11.32;92.43;100498.75;5010229;28;20103;-77
2022/04/28 02:16:46;;;;;;;24.52;10.63;;;;;;;11.18;92.40;100487.06;5010359;28;20026;-76
2022/04/28 02:19:11;;;;;;;18.15;9.77;;;;;;;11.28;92.22;100501.19;5010559;28;20084;-76
2022/04/28 02:21:37;;;;;;;16.67;8.65;;;;;;;11.25;92.39;100504.56;5010638;28;20085;-76
2022/04/28 02:24:02;;;;;;;15.40;7.78;;;;;;;11.30;91.80;100502.09;4992799;28;20093;-76
2022/04/28 02:26:28;;;;;;;12.88;7.32;;;;;;;11.31;91.22;100498.69;5010402;28;20037;-79
2022/04/28 02:28:53;;;;;;;13.30;7.03;;;;;;;11.39;90.27;100468.84;5010390;28;20037;-73
2022/04/28 02:31:19;;;;;;;8.73;6.13;;;;;;;11.47;89.91;100469.06;4992706;28;20050;-76
2022/04/28 02:33:44;;;;;;;9.93;6.65;;;;;;;11.57;90.21;100485.78;5010147;28;20405;-74
2022/04/28 02:36:09;;;;;;;23.38;13.13;;;;;;;11.47;90.34;100480.28;5010348;28;20029;-75
2022/04/28 02:38:35;;;;;;;22.40;13.88;;;;;;;11.50;90.83;100489.84;4992667;28;20026;-76
2022/04/28 02:41:01;;;;;;;31.58;14.77;;;;;;;11.28;92.40;100499.47;5010635;28;20048;-77
2022/04/28 02:43:26;;;;;;;31.27;15.02;;;;;;;11.38;92.16;100499.81;5010266;28;20030;-76
2022/04/28 02:45:52;;;;;;;24.75;11.63;;;;;;;11.29;92.08;100500.34;5009987;28;20468;-79
2022/04/28 02:48:17;;;;;;;21.55;10.88;;;;;;;11.29;91.90;100506.41;5009772;28;20036;-75
2022/04/28 02:50:42;;;;;;;22.52;10.50;;;;;;;11.20;92.36;100507.78;5011766;28;20026;-76
2022/04/28 02:53:08;;;;;;;19.48;10.00;;;;;;;11.23;92.59;100515.66;5013928;28;20022;-75
2022/04/28 02:55:33;;;;;;;14.85;9.45;;;;;;;11.28;92.66;100504.63;5013792;28;20512;-72
2022/04/28 02:57:59;;;;;;;20.85;9.18;;;;;;;11.25;92.59;100501.06;5013908;28;20109;-76
2022/04/28 03:00:24;;;;;;;19.02;8.75;;;;;;;11.15;93.22;100490.44;5013946;28;20057;-75
2022/04/28 03:02:49;;;;;;;16.25;8.88;;;;;;;11.25;93.74;100512.31;5013794;28;20018;-73
2022/04/28 03:05:15;;;;;;;16.85;8.73;;;;;;;11.28;93.69;100509.81;5013804;28;20037;-77
2022/04/28 03:10:52;;;;;;;13.93;9.00;;;;;;;11.06;95.47;100490.09;5013443;28;20433;-76
2022/04/28 03:13:19;;;;;;;13.77;9.02;;;;;;;11.21;95.33;100525.06;5013619;28;20037;-76
2022/04/28 03:15:49;;;;;;;13.55;9.00;;;;;;;11.10;95.18;100515.22;5013815;28;20029;-78
2022/04/28 03:18:15;;;;;;;12.73;8.57;;;;;;;11.25;94.97;100529.50;5014145;28;20032;-76
2022/04/28 03:20:42;;;;;;;17.90;9.07;;;;;;;11.29;95.06;100527.06;5013279;28;20026;-75
2022/04/28 03:23:08;;;;;;;16.00;9.20;;;;;;;11.52;94.70;100539.03;5013275;28;20095;-76
2022/04/28 03:25:34;;;;;;;14.30;8.93;;;;;;;11.65;94.15;100533.44;5013569;28;20026;-76
2022/04/28 03:27:59;;;;;;;16.15;9.57;;;;;;;11.70;94.02;100544.84;4978410;28;20419;-74
2022/04/28 03:30:25;;;;;;;15.55;9.13;;;;;;;11.46;94.36;100538.00;5013839;28;20050;-76
2022/04/28 03:32:50;;;;;;;13.57;8.98;;;;;;;11.42;94.92;100543.88;5013661;28;20543;-79
2022/04/28 03:35:16;;;;;;;15.85;8.93;;;;;;;11.38;95.57;100546.34;5013493;28;20034;-76
2022/04/28 03:37:47;;;;;;;12.88;8.65;;;;;;;11.14;96.57;100539.44;5012282;28;20044;-73
2022/04/28 03:40:12;;;;;;;14.05;8.13;;;;;;;11.00;98.16;100550.19;5012710;28;20026;-75
2022/04/28 03:42:38;;;;;;;21.05;9.57;;;;;;;10.85;99.06;100552.19;5013124;28;20497;-76
2022/04/28 03:45:04;;;;;;;15.93;8.88;;;;;;;10.71;99.65;100525.84;5013134;28;20037;-74
2022/04/28 03:47:33;;;;;;;11.77;8.70;;;;;;;10.81;100.00;100556.34;5012904;28;20032;-76
2022/04/28 03:49:58;;;;;;;14.18;9.05;;;;;;;10.73;99.94;100555.19;5013442;28;20052;-77
2022/04/28 03:52:24;;;;;;;12.25;8.23;;;;;;;10.79;100.00;100570.94;5012967;28;20125;-76
2022/04/28 03:54:49;;;;;;;14.43;8.07;;;;;;;10.73;100.00;100559.47;5012451;28;20511;-78
2022/04/28 03:57:15;;;;;;;13.27;8.25;;;;;;;10.70;100.00;100570.56;5012817;28;20417;-76
2022/04/28 03:59:40;;;;;;;16.70;8.68;;;;;;;10.59;100.00;100564.13;5012847;28;20481;-77
2022/04/28 04:02:06;;;;;;;15.73;9.02;;;;;;;10.43;100.00;100583.28;5011591;28;20037;-74
2022/04/28 04:04:32;;;;;;;15.15;9.23;;;;;;;10.37;100.00;100578.78;5012587;28;20029;-76
2022/04/28 04:06:57;;;;;;;17.85;9.85;;;;;;;10.39;100.00;100584.84;5012349;28;20022;-76
2022/04/28 04:09:23;;;;;;;18.83;9.75;;;;;;;10.29;100.00;100567.22;5012229;28;20026;-76
2022/04/28 04:11:49;;;;;;;16.25;10.23;;;;;;;10.36;100.00;100577.88;5012525;28;20401;-76
2022/04/28 04:14:14;;;;;;;16.92;8.80;;;;;;;10.43;100.00;100580.69;5011505;28;20029;-80
2022/04/28 04:16:40;;;;;;;14.52;9.13;;;;;;;10.46;100.00;100576.53;5011407;28;20034;-77
2022/04/28 04:19:05;;;;;;;16.55;9.23;;;;;;;10.52;100.00;100571.63;5012203;28;20025;-77
2022/04/28 04:21:31;;;;;;;13.52;8.45;;;;;;;10.58;100.00;100586.47;5012458;28;20445;-75
2022/04/28 04:23:57;;;;;;;15.23;8.88;;;;;;;10.65;100.00;100583.31;5009271;28;20041;-75
2022/04/28 04:26:22;;;;;;;17.33;9.82;;;;;;;10.69;100.00;100571.38;5012176;28;20021;-75
2022/04/28 04:28:48;;;;;;;19.15;10.23;;;;;;;10.46;100.00;100537.81;5012564;28;20482;-76
2022/04/28 04:33:57;;;;;;;25.60;12.02;;;;;;;10.78;100.00;100582.06;5012085;28;20029;-76
2022/04/28 04:36:22;;;;;;;25.55;12.80;;;;;;;10.81;100.00;100577.00;4994604;28;20022;-76
2022/04/28 04:38:48;;;;;;;22.38;12.32;;;;;;;10.88;100.00;100587.56;5011816;28;20551;-75
2022/04/28 04:41:13;;;;;;;18.95;11.55;;;;;;;10.77;100.00;100571.69;5001145;28;20050;-74
2022/04/28 04:43:39;;;;;;;17.30;10.05;;;;;;;10.92;100.00;100579.13;4991585;28;20586;-72
2022/04/28 04:46:04;;;;;;;19.15;10.32;;;;;;;10.96;100.00;100562.91;4991821;28;20026;-74
2022/04/28 04:48:31;;;;;;;15.40;9.57;;;;;;;11.17;100.00;100592.13;4992325;28;20026;-73
2022/04/28 04:50:57;;;;;;;13.63;9.50;;;;;;;11.15;100.00;100554.13;4992111;28;20030;-72
2022/04/28 04:53:23;;;;;;;15.80;10.70;;;;;;;11.21;100.00;100558.66;4992287;28;20037;-75
2022/04/28 04:55:49;;;;;;;14.52;9.35;;;;;;;11.49;100.00;100601.88;4992271;28;20022;-75
2022/04/28 04:58:14;;;;;;;15.57;10.18;;;;;;;11.55;100.00;100602.09;4991951;28;20533;-78
2022/04/28 05:00:40;;;;;;;18.35;10.70;;;;;;;11.61;100.00;100599.72;4992723;28;20049;-75
2022/04/28 05:03:06;;;;;;;16.52;10.43;;;;;;;11.76;100.00;100607.13;5003575;28;20049;-74
2022/04/28 05:05:31;;;;;;;14.18;10.25;;;;;;;11.85;100.00;100606.56;5011741;28;20552;-74
2022/04/28 05:07:57;;;;;;;26.73;10.85;;;;;;;11.77;100.00;100614.03;5011283;28;20533;-73
2022/04/28 05:10:24;;;;;;;16.20;10.30;;;;;;;11.84;100.00;100604.78;5011562;28;20034;-75
2022/04/28 05:12:49;;;;;;;16.23;10.10;;;;;;;12.07;100.00;100621.09;5000326;28;20041;-74
2022/04/28 05:15:15;;;;;;;18.73;12.07;;;;;;;12.17;100.00;100616.25;4991189;28;20730;-73
2022/04/28 05:17:40;;;;;;;16.15;12.20;;;;;;;12.10;100.00;100613.47;4991650;28;20030;-72
2022/04/28 05:20:07;;;;;;;18.90;11.95;;;;;;;12.27;100.00;100623.47;4990779;28;20490;-73
2022/04/28 05:22:32;;;;;;;17.15;10.73;;;;;;;12.36;100.00;100617.72;4993795;28;20092;-72
2022/04/28 05:24:58;;;;;;;21.05;13.40;;;;;;;12.45;100.00;100626.66;4992685;28;20529;-75
2022/04/28 05:27:24;;;;;;;25.13;13.05;;;;;;;12.39;100.00;100602.28;4992251;28;20094;-71
2022/04/28 05:29:50;;;;;;;17.45;12.60;;;;;;;12.52;100.00;100629.44;4990007;28;20486;-74
2022/04/28 05:32:16;;;;;;;15.30;11.50;;;;;;;12.54;100.00;100625.19;4990474;28;20033;-74
2022/04/28 05:34:41;;;;;;;20.15;13.02;;;;;;;12.57;100.00;100628.78;4990126;28;20030;-72
2022/04/28 05:37:07;;;;;;;18.77;12.90;;;;;;;12.57;100.00;100628.78;4990058;28;20073;-75
2022/04/28 05:39:32;;;;;;;18.92;12.85;;;;;;;12.70;100.00;100636.91;4995568;28;20037;-71
2022/04/28 05:41:58;;;;;;;17.27;13.82;;;;;;;12.61;100.00;100628.03;4991192;28;20490;-74
2022/04/28 05:47:07;;;;;;;19.15;13.75;;;;;;;12.66;100.00;100627.28;4991030;28;20045;-75
2022/04/28 05:49:33;;;;;;;16.48;13.07;;;;;;;12.62;100.00;100614.25;4990641;28;20034;-73
2022/04/28 05:51:59;;;;;;;19.60;13.60;;;;;;;12.66;100.00;100615.22;4991180;28;20034;-75
2022/04/28 05:54:25;;;;;;;20.83;14.77;;;;;;;12.87;100.00;100622.78;4989423;28;20030;-77
2022/04/28 05:56:51;;;;;;;24.45;15.45;;;;;;;12.93;100.00;100627.25;5003764;28;20418;-73
2022/04/28 05:59:17;;;;;;;21.13;13.95;;;;;;;12.99;100.00;100630.00;4991327;28;20108;-73
2022/04/28 06:01:43;;;;;;;20.23;13.43;;;;;;;13.06;100.00;100644.03;4990464;28;20026;-73
2022/04/28 06:04:08;;;;;;;17.15;12.57;;;;;;;13.14;100.00;100634.75;4990199;28;20513;-74
2022/04/28 06:06:35;;;;;;;18.75;13.27;;;;;;;13.17;100.00;100636.56;4990584;28;20052;-74
2022/04/28 06:09:00;;;;;;;21.83;12.05;;;;;;;13.25;100.00;100640.28;5004463;28;20038;-74
2022/04/28 06:11:26;;;;;;;18.73;11.93;;;;;;;13.17;100.00;100621.00;4990404;28;20128;-73
2022/04/28 06:13:51;;;;;;;17.45;12.10;;;;;;;13.40;100.00;100643.31;4990352;28;20041;-73
2022/04/28 06:16:17;;;;;;;17.58;12.30;;;;;;;13.47;100.00;100631.41;4990544;28;20049;-74
2022/04/28 06:18:43;;;;;;;20.23;12.73;;;;;;;13.56;100.00;100621.28;4989935;28;20062;-74
2022/04/28 06:21:08;;;;;;;18.58;13.00;;;;;;;13.72;100.00;100640.75;4990234;28;20026;-74
2022/04/28 06:23:34;;;;;;;15.32;11.02;;;;;;;13.94;100.00;100643.88;4990850;28;20045;-74
2022/04/28 06:26:00;;;;;;;16.60;11.63;;;;;;;14.18;100.00;100645.34;4990529;28;20042;-74
2022/04/28 06:28:26;;;;;;;29.90;14.23;;;;;;;14.44;100.00;100655.50;4990770;28;20076;-72
2022/04/28 06:30:51;;;;;;;30.30;12.25;;;;;;;14.56;100.00;100661.00;4991735;28;20494;-75
2022/04/28 06:33:18;;;;;;;31.48;13.65;;;;;;;14.64;100.00;100662.06;4991161;28;20034;-75
2022/04/28 06:35:44;;;;;;;22.13;10.85;;;;;;;14.76;100.00;100669.28;4990356;28;20026;-75
2022/04/28 06:38:09;;;;;;;16.75;10.52;;;;;;;14.91;100.00;100654.91;4990476;28;20536;-75
2022/04/28 06:40:35;;;;;;;16.02;9.60;;;;;;;14.98;100.00;100639.47;4990023;28;20026;-76
2022/04/28 06:43:01;;;;;;;13.82;10.40;;;;;;;15.04;100.00;100630.91;4990420;28;20029;-74
2022/04/28 06:45:26;;;;;;;20.15;9.38;;;;;;;15.23;100.00;100654.69;4990867;28;20089;-74
2022/04/28 06:47:51;;;;;;;16.15;9.15;;;;;;;15.31;100.00;100646.19;4990320;28;20026;-74
2022/04/28 06:50:17;;;;;;;14.85;8.15;;;;;;;15.44;100.00;100638.66;4990511;28;20030;-72
2022/04/28 06:52:44;;;;;;;15.35;9.88;;;;;;;15.51;100.00;100644.03;4990725;28;20018;-74
2022/04/28 06:55:10;;;;;;;20.17;10.40;;;;;;;15.49;100.00;100632.69;4990622;28;20038;-75
2022/04/28 06:57:36;;;;;;;19.73;10.10;;;;;;;15.68;100.00;100662.53;4990901;28;20026;-74
2022/04/28 07:00:07;;;;;;;11.80;7.68;;;;;;;15.72;100.00;100653.06;4990726;28;20524;-74
2022/04/28 07:02:33;;;;;;;9.73;6.88;;;;;;;15.74;98.99;100660.91;4990729;28;20022;-74
2022/04/28 07:04:58;;;;;;;15.48;6.95;;;;;;;15.63;98.53;100655.50;4990557;28;20036;-72
2022/04/28 07:07:24;;;;;;;10.65;6.53;;;;;;;15.57;98.20;100635.44;4990661;28;20410;-74
2022/04/28 07:09:50;;;;;;;11.50;6.72;;;;;;;15.76;99.08;100659.22;4990592;28;20027;-74
2022/04/28 07:12:15;;;;;;;13.98;7.10;;;;;;;15.89;99.78;100657.75;4990895;28;20039;-75
2022/04/28 07:14:41;;;;;;;11.88;7.45;;;;;;;15.90;98.83;100656.91;4990434;28;20030;-74
2022/04/28 07:17:06;;;;;;;11.43;7.43;;;;;;;16.04;100.00;100647.63;4972764;28;20516;-73
2022/04/28 07:19:31;;;;;;;14.63;7.88;;;;;;;16.14;100.00;100646.91;4990701;28;20030;-76
2022/04/28 07:22:02;;;;;;;13.82;7.55;;;;;;;16.38;98.37;100649.91;4990376;28;20034;-74
2022/04/28 07:24:28;;;;;;;15.27;7.05;;;;;;;16.54;97.21;100644.06;4990560;28;20027;-74
2022/04/28 07:26:53;;;;;;;10.95;6.93;;;;;;;16.70;96.18;100652.09;4990244;28;20509;-74
2022/04/28 07:29:19;;;;;;;15.05;6.57;;;;;;;16.88;95.68;100646.31;4990268;28;20119;-74
2022/04/28 07:31:44;;;;;;;10.02;6.40;;;;;;;17.11;96.12;100657.09;4990719;28;20185;-74
2022/04/28 07:34:10;;;;;;;9.73;6.28;;;;;;;17.17;95.41;100654.56;4990717;28;20398;-76
2022/04/28 07:36:35;;;;;;;9.55;5.70;;;;;;;17.32;93.89;100659.09;4990681;28;20063;-74
2022/04/28 07:39:00;;;;;;;10.82;5.75;;;;;;;17.23;93.28;100630.25;4993799;28;20444;-74
2022/04/28 07:41:26;;;;;;;9.70;5.85;;;;;;;17.52;94.52;100659.31;4994017;28;20038;-74
2022/04/28 07:43:51;;;;;;;10.38;5.70;;;;;;;17.60;92.61;100662.88;4993404;28;20105;-74
2022/04/28 07:46:16;;;;;;;13.82;5.57;;;;;;;17.75;92.52;100669.13;4993792;28;20096;-74
2022/04/28 07:48:42;;;;;;;9.57;5.43;;;;;;;17.54;93.49;100630.63;4993812;28;20041;-74
2022/04/28 07:51:07;;;;;;;10.10;4.03;;;;;;;17.83;88.23;100662.28;4993879;28;20148;-76
2022/04/28 07:53:33;;;;;;;10.95;4.30;;;;;;;17.90;89.36;100658.84;4993689;28;20034;-71
2022/04/28 07:56:13;;;;;;;8.02;4.50;;;;;;;17.79;89.38;100660.47;4976149;28;20037;-74
2022/04/28 07:58:40;;;;;;;8.18;4.65;;;;;;;17.86;88.88;100667.50;4993657;28;20037;-74
2022/04/28 08:01:06;;;;;;;6.65;3.90;;;;;;;17.77;86.55;100656.97;4993463;28;20106;-74
2022/04/28 08:03:31;;;;;;;9.38;4.28;;;;;;;17.84;88.09;100656.16;4993359;28;20096;-71
2022/04/28 08:05:57;;;;;;;7.88;3.75;;;;;;;17.86;85.99;100667.50;4993444;28;20101;-74
2022/04/28 08:08:22;;;;;;;7.10;3.80;;;;;;;17.73;84.92;100665.63;4993264;28;20121;-71
2022/04/28 08:10:48;;;;;;;8.90;3.67;;;;;;;17.68;85.66;100662.94;4993211;28;20403;-71
2022/04/28 08:13:14;;;;;;;11.60;3.65;;;;;;;17.86;88.00;100651.84;4992915;28;20092;-74
2022/04/28 08:15:40;;;;;;;8.20;3.65;;;;;;;18.16;84.09;100660.84;4993699;28;20034;-75
2022/04/28 08:18:05;;;;;;;14.23;4.10;;;;;;;18.45;84.81;100662.81;4993448;28;20027;-74
2022/04/28 08:20:31;;;;;;;7.13;3.47;;;;;;;18.47;80.91;100650.66;4992884;28;20109;-74
2022/04/28 08:22:56;;;;;;;7.10;3.15;;;;;;;18.48;82.08;100654.13;4992320;28;20031;-73
2022/04/28 08:25:22;;;;;;;10.40;3.70;;;;;;;18.62;80.24;100646.38;4993045;28;20033;-74
2022/04/28 08:27:47;;;;;;;11.13;3.83;;;;;;;18.85;82.66;100647.41;4992685;28;20037;-74
2022/04/28 08:30:13;;;;;;;6.68;3.45;;;;;;;18.72;83.88;100608.97;4993009;28;20061;-72
2022/04/28 08:32:38;;;;;;;8.27;3.10;;;;;;;19.04;79.48;100652.75;5004856;28;20030;-73
2022/04/28 08:35:04;;;;;;;7.32;3.20;;;;;;;19.15;78.47;100639.75;5012295;28;20025;-71
2022/04/28 08:37:30;;;;;;;6.45;2.90;;;;;;;19.27;80.88;100645.03;5012508;28;20022;-74
2022/04/28 08:39:55;;;;;;;5.88;3.47;;;;;;;19.45;83.75;100640.72;5012329;28;20504;-75
2022/04/28 08:42:22;;;;;;;5.45;2.80;;;;;;;19.63;79.73;100642.53;4993408;28;20033;-75
2022/04/28 08:44:49;;;;;;;6.13;3.40;;;;;;;19.80;76.42;100639.94;5012317;28;20037;-74
2022/04/28 08:47:15;;;;;;;5.78;3.30;;;;;;;19.95;77.68;100640.00;5012169;28;20022;-75
2022/04/28 08:49:44;;;;;;;7.40;3.05;;;;;;;20.01;77.12;100624.28;5011545;28;20484;-71
2022/04/28 08:52:11;;;;;;;7.47;3.15;;;;;;;20.10;77.36;100631.28;5002458;28;20064;-75
2022/04/28 08:54:39;;;;;;;8.95;2.90;;;;;;;20.26;75.76;100628.63;5006871;28;20038;-74
2022/04/28 08:57:05;;;;;;;8.25;2.90;;;;;;;20.31;75.52;100605.91;4996911;28;20153;-74
2022/04/28 08:59:30;;;;;;;7.32;3.00;;;;;;;20.57;71.68;100616.34;5007953;28;20511;-75
2022/04/28 09:01:55;;;;;;;5.35;2.75;;;;;;;20.72;71.66;100628.59;5009604;28;20145;-76
2022/04/28 09:04:22;;;;;;;5.95;2.47;;;;;;;20.75;69.73;100619.84;4997348;28;20021;-76
2022/04/28 09:06:54;;;;;;;7.15;2.80;;;;;;;20.88;69.20;100615.44;4973918;28;20069;-76
2022/04/28 09:09:20;;;;;;;6.43;2.65;;;;;;;20.92;68.94;100614.56;4991148;28;20019;-76
2022/04/28 09:11:47;;;;;;;7.75;2.78;;;;;;;20.80;68.20;100587.47;4991594;28;20030;-74
2022/04/28 09:14:16;;;;;;;9.48;3.10;;;;;;;20.96;69.52;100605.78;4991392;28;20084;-76
2022/04/28 09:16:46;;;;;;;10.43;2.92;;;;;;;21.13;68.74;100601.34;4991960;28;20038;-75
2022/04/28 09:19:19;;;;;;;11.63;3.28;;;;;;;21.17;69.43;100624.09;5010440;28;20032;-76
2022/04/28 09:21:46;;;;;;;9.77;2.90;;;;;;;21.27;66.75;100603.91;5010345;28;20084;-77
2022/04/28 09:24:13;;;;;;;10.65;2.53;;;;;;;21.20;65.18;100583.81;5000107;28;20045;-75
2022/04/28 09:26:40;;;;;;;6.03;2.95;;;;;;;21.46;65.69;100602.03;5005536;28;20080;-77
2022/04/28 09:29:10;;;;;;;14.02;3.10;;;;;;;21.58;64.07;100597.63;5010787;28;20037;-77
2022/04/28 09:31:37;;;;;;;10.35;2.88;;;;;;;21.70;62.73;100600.19;5008951;28;20122;-76
2022/04/28 09:34:18;;;;;;;22.25;4.45;;;;;;;21.85;61.90;100603.59;5010566;28;20048;-77
2022/04/28 09:36:45;;;;;;;17.25;3.83;;;;;;;21.91;60.14;100600.91;5010405;28;20526;-76
2022/04/28 09:44:49;;;;;;;11.32;3.38;;;;;;;22.30;55.59;100585.66;4995245;28;20051;-77
2022/04/28 09:47:16;;;;;;;13.30;3.35;;;;;;;22.21;50.34;100551.56;5005002;28;20041;-75
2022/04/28 09:49:41;;;;;;;10.07;2.70;;;;;;;22.20;48.05;100573.50;5003117;28;20034;-76
2022/04/28 09:52:09;;;;;;;14.55;4.20;;;;;;;22.43;52.70;100578.53;4981303;28;20029;-76
2022/04/28 09:54:36;;;;;;;15.93;3.97;;;;;;;22.43;51.85;100570.66;5010659;28;20405;-75
2022/04/28 09:57:04;;;;;;;9.88;3.08;;;;;;;22.51;51.35;100576.72;5010777;28;20053;-78
2022/04/28 09:59:30;;;;;;;15.48;3.85;;;;;;;22.45;50.91;100559.25;5010027;28;20037;-78
2022/04/28 10:01:58;;;;;;;14.35;3.63;;;;;;;22.76;49.10;100572.03;5010488;28;20040;-78
2022/04/28 10:04:24;;;;;;;18.27;3.83;;;;;;;22.72;49.71;100562.44;5010766;28;20026;-78
2022/04/28 10:06:50;;;;;;;12.27;3.20;;;;;;;22.73;52.05;100558.94;4993264;28;20555;-78
2022/04/28 10:09:18;;;;;;;10.75;3.10;;;;;;;22.73;52.59;100556.28;5010638;28;20069;-78
2022/04/28 10:11:49;;;;;;;6.65;3.03;;;;;;;22.60;50.99;100574.00;5010596;28;20025;-79
2022/04/28 10:14:14;;;;;;;16.50;3.95;;;;;;;22.75;51.90;100569.44;5010668;28;20033;-79
2022/04/28 10:16:45;;;;;;;8.82;2.80;;;;;;;22.84;52.01;100565.81;5010753;28;20025;-78
2022/04/28 10:19:24;;;;;;;7.07;2.40;;;;;;;22.25;52.51;100526.97;5010613;28;20025;-78
2022/04/28 10:21:59;;;;;;;12.50;2.95;;;;;;;22.27;53.39;100528.72;5010448;28;20025;-80
2022/04/28 10:33:16;;;;;;;6.20;2.35;;;;;;;22.99;52.76;100546.31;4995495;28;20413;-78
2022/04/28 10:35:56;;;;;;;7.53;2.35;;;;;;;23.10;51.83;100542.66;4990866;28;20026;-76
2022/04/28 10:38:31;;;;;;;11.07;3.20;;;;;;;23.16;48.58;100544.34;4990810;28;20031;-77
2022/04/28 10:41:08;;;;;;;11.93;3.03;;;;;;;23.42;49.87;100536.06;4991933;28;20130;-76
2022/04/28 10:43:33;;;;;;;9.57;2.70;;;;;;;23.65;48.20;100536.59;4990621;28;20034;-74
2022/04/28 10:46:08;;;;;;;7.22;2.70;;;;;;;23.55;48.41;100535.88;4990078;28;20092;-76
2022/04/28 10:48:43;;;;;;;7.75;2.45;;;;;;;23.84;45.91;100538.06;4989574;28;20066;-75
2022/04/28 10:51:16;;;;;;;6.95;2.50;;;;;;;23.89;46.46;100491.38;4989981;28;20030;-76
2022/04/28 10:53:59;;;;;;;6.40;2.38;;;;;;;24.26;45.50;100536.47;4989445;28;20027;-78
2022/04/28 10:56:30;;;;;;;8.80;2.78;;;;;;;24.29;43.83;100510.91;4990083;28;20486;-78
2022/04/28 10:58:57;;;;;;;8.05;2.40;;;;;;;24.28;44.78;100526.78;4989807;28;20022;-76
2022/04/28 11:01:32;;;;;;;6.03;2.22;;;;;;;24.13;45.61;100528.78;5005595;28;20037;-74
2022/04/28 11:04:02;;;;;;;7.32;2.58;;;;;;;23.81;48.27;100502.97;5005521;28;20022;-75
2022/04/28 11:06:40;;;;;;;7.82;2.45;;;;;;;23.81;46.05;100522.28;5000508;28;20525;-76
2022/04/28 11:09:08;;;;;;;8.65;2.95;;;;;;;23.71;44.82;100521.59;5003329;28;20032;-76
2022/04/28 11:11:43;;;;;;;8.32;2.80;;;;;;;24.12;47.27;100527.03;5002114;28;20040;-78
2022/04/28 11:14:09;;;;;;;9.70;2.65;;;;;;;24.43;44.34;100522.97;5006565;28;20557;-78
2022/04/28 11:16:35;;;;;;;11.32;3.05;;;;;;;24.68;44.02;100529.50;5002822;28;20112;-76
2022/04/28 11:19:02;;;;;;;13.52;3.05;;;;;;;24.73;43.80;100508.28;5014083;28;20034;-74
2022/04/28 11:21:28;;;;;;;5.43;2.55;;;;;;;24.77;42.03;100520.50;5012055;28;20030;-74
2022/04/28 11:23:55;;;;;;;8.70;2.10;;;;;;;24.93;40.42;100515.78;5011587;28;20117;-74
2022/04/28 11:26:24;;;;;;;10.10;2.30;;;;;;;25.16;42.20;100512.63;5010956;28;20088;-76
2022/04/28 11:28:51;;;;;;;9.27;2.50;;;;;;;25.39;40.51;100518.31;5013959;28;20046;-77
2022/04/28 11:31:18;;;;;;;7.47;2.20;;;;;;;25.46;40.97;100527.81;5014429;28;20707;-75
2022/04/28 11:33:46;;;;;;;5.13;1.95;;;;;;;25.55;38.79;100517.03;5013869;28;20033;-77
2022/04/28 11:36:19;;;;;;;7.07;2.15;;;;;;;25.69;39.95;100519.34;5001491;28;20034;-79
2022/04/28 11:38:54;;;;;;;4.45;2.03;;;;;;;25.84;39.95;100511.03;4998805;28;20029;-77
2022/04/28 11:41:39;;;;;;;11.90;2.65;;;;;;;25.71;41.39;100511.34;5004109;28;20030;-75
2022/04/28 11:44:07;;;;;;;9.60;2.58;;;;;;;25.81;42.67;100529.59;5004879;28;20104;-75